Pine Ridge, Kentucky
Current Conditions -  °F | °C
As of 6:53 PM on Sunday 21 Dec 2014 (Local Time) from KJKL Reporting Station
Clear Clear  
Wind Chill: 32°   Ceiling: Unl
Heat Index: 37°   Visibility: 10mi
Dew Point: 26°   Wind: 6mph
Humidity: 65%   Direction: 50°NE
Pressure: 30.12"   Gusts: NA
Location:  37.77°N, 83.62°W
Report Text: KJKL 212353Z AUTO 05005KT 10SM CLR 03/M03 A3012 RMK AO2 SLP211 T00281033 10072 20028 56003
Loading
Personal Weather Stations






























Interactive Weather Map New forecast layout! Learn more

10-Day Weather Forecast

Advertisements
Track Severe Weather on mobile